sensor_id;sensor_type;location;lat;lon;timestamp;temperature;humidity
20512;DHT22;10414;52.074;5.126;2023-07-13T00:01:05;17.70;99.90
20512;DHT22;10414;52.074;5.126;2023-07-13T00:03:33;17.70;99.90
20512;DHT22;10414;52.074;5.126;2023-07-13T00:06:07;17.70;99.90
20512;DHT22;10414;52.074;5.126;2023-07-13T00:08:35;17.70;99.90
20512;DHT22;10414;52.074;5.126;2023-07-13T00:11:02;17.70;99.90
20512;DHT22;10414;52.074;5.126;2023-07-13T00:13:30;17.70;99.90
20512;DHT22;10414;52.074;5.126;2023-07-13T00:15:58;17.70;99.90
20512;DHT22;10414;52.074;5.126;2023-07-13T00:18:26;17.60;99.90
20512;DHT22;10414;52.074;5.126;2023-07-13T00:20:58;17.60;99.90
20512;DHT22;10414;52.074;5.126;2023-07-13T00:23:31;17.50;99.90
20512;DHT22;10414;52.074;5.126;2023-07-13T00:25:59;17.40;99.90
20512;DHT22;10414;52.074;5.126;2023-07-13T00:28:26;17.50;99.90
20512;DHT22;10414;52.074;5.126;2023-07-13T00:30:53;17.50;99.90
20512;DHT22;10414;52.074;5.126;2023-07-13T00:33:23;17.50;99.90
20512;DHT22;10414;52.074;5.126;2023-07-13T00:35:53;17.50;99.90
20512;DHT22;10414;52.074;5.126;2023-07-13T00:38:20;17.50;99.90
20512;DHT22;10414;52.074;5.126;2023-07-13T00:40:47;17.60;99.90
20512;DHT22;10414;52.074;5.126;2023-07-13T00:43:16;17.60;99.90
20512;DHT22;10414;52.074;5.126;2023-07-13T00:46:09;17.40;99.90
20512;DHT22;10414;52.074;5.126;2023-07-13T00:48:39;17.40;99.90
20512;DHT22;10414;52.074;5.126;2023-07-13T00:51:06;17.30;99.90
20512;DHT22;10414;52.074;5.126;2023-07-13T00:53:36;17.10;99.90
20512;DHT22;10414;52.074;5.126;2023-07-13T00:56:06;17.10;99.90
20512;DHT22;10414;52.074;5.126;2023-07-13T00:58:33;17.10;99.90
20512;DHT22;10414;52.074;5.126;2023-07-13T01:01:01;17.00;99.90
20512;DHT22;10414;52.074;5.126;2023-07-13T01:03:28;17.10;99.90
20512;DHT22;10414;52.074;5.126;2023-07-13T01:05:57;17.20;99.90
20512;DHT22;10414;52.074;5.126;2023-07-13T01:08:24;17.00;99.90
20512;DHT22;10414;52.074;5.126;2023-07-13T01:10:52;17.10;99.90
20512;DHT22;10414;52.074;5.126;2023-07-13T01:13:19;17.10;99.90
20512;DHT22;10414;52.074;5.126;2023-07-13T01:15:50;17.00;99.90
20512;DHT22;10414;52.074;5.126;2023-07-13T01:18:24;16.90;99.90
20512;DHT22;10414;52.074;5.126;2023-07-13T01:20:55;16.90;99.90
20512;DHT22;10414;52.074;5.126;2023-07-13T01:23:28;16.90;99.90
20512;DHT22;10414;52.074;5.126;2023-07-13T01:25:56;16.90;99.90
20512;DHT22;10414;52.074;5.126;2023-07-13T01:28:26;16.90;99.90
20512;DHT22;10414;52.074;5.126;2023-07-13T01:30:58;17.00;99.90
20512;DHT22;10414;52.074;5.126;2023-07-13T01:33:26;16.90;99.90
20512;DHT22;10414;52.074;5.126;2023-07-13T01:35:54;17.00;99.90
20512;DHT22;10414;52.074;5.126;2023-07-13T01:38:23;16.90;99.90
20512;DHT22;10414;52.074;5.126;2023-07-13T01:40:51;16.90;99.90
20512;DHT22;10414;52.074;5.126;2023-07-13T01:43:18;16.80;99.90
20512;DHT22;10414;52.074;5.126;2023-07-13T01:45:45;16.80;99.90
20512;DHT22;10414;52.074;5.126;2023-07-13T01:48:13;16.80;99.90
20512;DHT22;10414;52.074;5.126;2023-07-13T01:50:40;16.80;99.90
20512;DHT22;10414;52.074;5.126;2023-07-13T01:53:08;16.90;99.90
20512;DHT22;10414;52.074;5.126;2023-07-13T01:55:35;16.90;99.90
20512;DHT22;10414;52.074;5.126;2023-07-13T01:58:03;16.70;99.90
20512;DHT22;10414;52.074;5.126;2023-07-13T02:00:30;16.80;99.90
20512;DHT22;10414;52.074;5.126;2023-07-13T02:02:58;16.70;99.90
20512;DHT22;10414;52.074;5.126;2023-07-13T02:05:25;16.60;99.90
20512;DHT22;10414;52.074;5.126;2023-07-13T02:07:52;16.70;99.90
20512;DHT22;10414;52.074;5.126;2023-07-13T02:10:23;16.60;99.90
20512;DHT22;10414;52.074;5.126;2023-07-13T02:12:52;16.70;99.90
20512;DHT22;10414;52.074;5.126;2023-07-13T02:15:22;16.80;99.90
20512;DHT22;10414;52.074;5.126;2023-07-13T02:17:48;16.80;99.90
20512;DHT22;10414;52.074;5.126;2023-07-13T02:20:15;16.70;99.90
20512;DHT22;10414;52.074;5.126;2023-07-13T02:22:42;16.60;99.90
20512;DHT22;10414;52.074;5.126;2023-07-13T02:25:09;16.50;99.90
20512;DHT22;10414;52.074;5.126;2023-07-13T02:27:37;16.60;99.90
20512;DHT22;10414;52.074;5.126;2023-07-13T02:30:05;16.50;99.90
20512;DHT22;10414;52.074;5.126;2023-07-13T02:32:32;16.50;99.90
20512;DHT22;10414;52.074;5.126;2023-07-13T02:34:59;16.60;99.90
20512;DHT22;10414;52.074;5.126;2023-07-13T02:37:26;16.50;99.90
20512;DHT22;10414;52.074;5.126;2023-07-13T02:39:53;16.40;99.90
20512;DHT22;10414;52.074;5.126;2023-07-13T02:42:20;16.40;99.90
20512;DHT22;10414;52.074;5.126;2023-07-13T02:44:48;16.40;99.90
20512;DHT22;10414;52.074;5.126;2023-07-13T02:47:16;16.30;99.90
20512;DHT22;10414;52.074;5.126;2023-07-13T02:49:43;16.50;99.90
20512;DHT22;10414;52.074;5.126;2023-07-13T02:52:10;16.40;99.90
20512;DHT22;10414;52.074;5.126;2023-07-13T02:54:38;16.50;99.90
20512;DHT22;10414;52.074;5.126;2023-07-13T02:57:07;16.50;99.90
20512;DHT22;10414;52.074;5.126;2023-07-13T02:59:34;16.40;99.90
20512;DHT22;10414;52.074;5.126;2023-07-13T03:02:04;16.40;99.90
20512;DHT22;10414;52.074;5.126;2023-07-13T03:04:31;16.50;99.90
20512;DHT22;10414;52.074;5.126;2023-07-13T03:06:58;16.50;99.90
20512;DHT22;10414;52.074;5.126;2023-07-13T03:09:25;16.40;99.90
20512;DHT22;10414;52.074;5.126;2023-07-13T03:11:53;16.40;99.90
20512;DHT22;10414;52.074;5.126;2023-07-13T03:14:23;16.40;99.90
20512;DHT22;10414;52.074;5.126;2023-07-13T03:16:50;16.30;99.90
20512;DHT22;10414;52.074;5.126;2023-07-13T03:19:19;16.40;99.90
20512;DHT22;10414;52.074;5.126;2023-07-13T03:21:45;16.50;99.90
20512;DHT22;10414;52.074;5.126;2023-07-13T03:24:12;16.40;99.90
20512;DHT22;10414;52.074;5.126;2023-07-13T03:26:39;16.40;99.90
20512;DHT22;10414;52.074;5.126;2023-07-13T03:29:06;16.60;99.90
20512;DHT22;10414;52.074;5.126;2023-07-13T03:31:34;16.60;99.90
20512;DHT22;10414;52.074;5.126;2023-07-13T03:34:01;16.50;99.90
20512;DHT22;10414;52.074;5.126;2023-07-13T03:36:31;16.70;99.90
20512;DHT22;10414;52.074;5.126;2023-07-13T03:39:00;16.50;99.90
20512;DHT22;10414;52.074;5.126;2023-07-13T03:41:27;16.50;99.90
20512;DHT22;10414;52.074;5.126;2023-07-13T03:43:56;16.30;99.90
20512;DHT22;10414;52.074;5.126;2023-07-13T03:46:23;16.20;99.90
20512;DHT22;10414;52.074;5.126;2023-07-13T03:48:50;16.20;99.90
20512;DHT22;10414;52.074;5.126;2023-07-13T03:51:17;16.10;99.90
20512;DHT22;10414;52.074;5.126;2023-07-13T03:53:46;16.20;99.90
20512;DHT22;10414;52.074;5.126;2023-07-13T03:56:14;16.30;99.90
20512;DHT22;10414;52.074;5.126;2023-07-13T03:58:42;16.30;99.90
20512;DHT22;10414;52.074;5.126;2023-07-13T04:01:11;16.50;99.90
20512;DHT22;10414;52.074;5.126;2023-07-13T04:03:41;16.50;99.90
20512;DHT22;10414;52.074;5.126;2023-07-13T04:06:17;16.50;99.90
20512;DHT22;10414;52.074;5.126;2023-07-13T04:08:49;16.50;99.90
20512;DHT22;10414;52.074;5.126;2023-07-13T04:11:17;16.50;99.90
20512;DHT22;10414;52.074;5.126;2023-07-13T04:13:44;16.60;99.90
20512;DHT22;10414;52.074;5.126;2023-07-13T04:16:11;16.60;99.90
20512;DHT22;10414;52.074;5.126;2023-07-13T04:18:38;16.70;99.90
20512;DHT22;10414;52.074;5.126;2023-07-13T04:21:07;16.70;99.90
20512;DHT22;10414;52.074;5.126;2023-07-13T04:23:34;17.00;99.90
20512;DHT22;10414;52.074;5.126;2023-07-13T04:26:02;17.00;99.90
20512;DHT22;10414;52.074;5.126;2023-07-13T04:28:31;17.30;99.90
20512;DHT22;10414;52.074;5.126;2023-07-13T04:30:58;17.60;99.90
20512;DHT22;10414;52.074;5.126;2023-07-13T04:33:25;17.80;99.90
20512;DHT22;10414;52.074;5.126;2023-07-13T04:35:53;18.20;99.90
20512;DHT22;10414;52.074;5.126;2023-07-13T04:38:22;18.80;99.90
20512;DHT22;10414;52.074;5.126;2023-07-13T04:40:50;19.00;99.90
20512;DHT22;10414;52.074;5.126;2023-07-13T04:43:18;19.20;99.90
20512;DHT22;10414;52.074;5.126;2023-07-13T04:45:45;19.50;99.90
20512;DHT22;10414;52.074;5.126;2023-07-13T04:48:12;19.30;99.90
20512;DHT22;10414;52.074;5.126;2023-07-13T04:50:41;20.00;99.90
20512;DHT22;10414;52.074;5.126;2023-07-13T04:53:09;20.30;99.90
20512;DHT22;10414;52.074;5.126;2023-07-13T04:55:35;20.50;99.90
20512;DHT22;10414;52.074;5.126;2023-07-13T04:58:06;20.60;99.90
20512;DHT22;10414;52.074;5.126;2023-07-13T05:00:34;20.40;99.90
20512;DHT22;10414;52.074;5.126;2023-07-13T05:03:03;20.10;99.90
20512;DHT22;10414;52.074;5.126;2023-07-13T05:05:30;20.60;99.90
20512;DHT22;10414;52.074;5.126;2023-07-13T05:07:57;20.70;99.90
20512;DHT22;10414;52.074;5.126;2023-07-13T05:10:24;20.50;99.90
20512;DHT22;10414;52.074;5.126;2023-07-13T05:12:51;20.60;99.90
20512;DHT22;10414;52.074;5.126;2023-07-13T05:15:20;19.90;99.90
20512;DHT22;10414;52.074;5.126;2023-07-13T05:17:48;19.60;99.90
20512;DHT22;10414;52.074;5.126;2023-07-13T05:20:17;20.20;99.90
20512;DHT22;10414;52.074;5.126;2023-07-13T05:22:45;19.80;99.90
20512;DHT22;10414;52.074;5.126;2023-07-13T05:25:13;19.40;99.90
20512;DHT22;10414;52.074;5.126;2023-07-13T05:27:40;19.10;99.90
20512;DHT22;10414;52.074;5.126;2023-07-13T05:30:07;18.80;99.90
20512;DHT22;10414;52.074;5.126;2023-07-13T05:32:36;18.80;99.90
20512;DHT22;10414;52.074;5.126;2023-07-13T05:35:05;19.30;99.90
20512;DHT22;10414;52.074;5.126;2023-07-13T05:37:32;20.20;99.90
20512;DHT22;10414;52.074;5.126;2023-07-13T05:40:02;21.50;99.90
20512;DHT22;10414;52.074;5.126;2023-07-13T05:42:29;22.20;99.90
20512;DHT22;10414;52.074;5.126;2023-07-13T05:44:57;21.80;99.90
20512;DHT22;10414;52.074;5.126;2023-07-13T05:47:24;21.00;99.90
20512;DHT22;10414;52.074;5.126;2023-07-13T05:49:51;21.20;99.90
20512;DHT22;10414;52.074;5.126;2023-07-13T05:52:19;21.30;99.90
20512;DHT22;10414;52.074;5.126;2023-07-13T05:54:49;21.80;99.90
20512;DHT22;10414;52.074;5.126;2023-07-13T05:57:15;21.30;99.90
20512;DHT22;10414;52.074;5.126;2023-07-13T05:59:42;21.60;99.90
20512;DHT22;10414;52.074;5.126;2023-07-13T06:02:10;22.60;99.90
20512;DHT22;10414;52.074;5.126;2023-07-13T06:04:37;23.80;99.90
20512;DHT22;10414;52.074;5.126;2023-07-13T06:07:04;25.30;99.90
20512;DHT22;10414;52.074;5.126;2023-07-13T06:09:32;26.60;99.90
20512;DHT22;10414;52.074;5.126;2023-07-13T06:11:59;28.40;99.90
20512;DHT22;10414;52.074;5.126;2023-07-13T06:14:26;29.20;99.90
20512;DHT22;10414;52.074;5.126;2023-07-13T06:16:53;28.70;99.90
20512;DHT22;10414;52.074;5.126;2023-07-13T06:19:19;27.60;99.90
20512;DHT22;10414;52.074;5.126;2023-07-13T06:21:46;26.20;99.90
20512;DHT22;10414;52.074;5.126;2023-07-13T06:24:13;24.80;99.90
20512;DHT22;10414;52.074;5.126;2023-07-13T06:26:41;25.20;99.90
20512;DHT22;10414;52.074;5.126;2023-07-13T06:29:08;25.10;99.90
20512;DHT22;10414;52.074;5.126;2023-07-13T06:31:35;24.80;99.90
20512;DHT22;10414;52.074;5.126;2023-07-13T06:34:02;23.30;99.90
20512;DHT22;10414;52.074;5.126;2023-07-13T06:36:29;22.10;99.90
20512;DHT22;10414;52.074;5.126;2023-07-13T06:38:56;21.70;99.90
20512;DHT22;10414;52.074;5.126;2023-07-13T06:41:28;21.50;99.90
20512;DHT22;10414;52.074;5.126;2023-07-13T06:43:57;21.80;99.90
20512;DHT22;10414;52.074;5.126;2023-07-13T06:46:24;21.60;99.90
20512;DHT22;10414;52.074;5.126;2023-07-13T06:48:51;22.30;99.90
20512;DHT22;10414;52.074;5.126;2023-07-13T06:51:20;23.10;99.90
20512;DHT22;10414;52.074;5.126;2023-07-13T06:53:49;22.40;99.90
20512;DHT22;10414;52.074;5.126;2023-07-13T06:56:17;21.60;99.90
20512;DHT22;10414;52.074;5.126;2023-07-13T06:58:44;20.90;99.90
20512;DHT22;10414;52.074;5.126;2023-07-13T07:01:12;20.40;99.90
20512;DHT22;10414;52.074;5.126;2023-07-13T07:03:39;20.10;99.90
20512;DHT22;10414;52.074;5.126;2023-07-13T07:06:13;20.00;99.90
20512;DHT22;10414;52.074;5.126;2023-07-13T07:08:40;20.20;99.90
20512;DHT22;10414;52.074;5.126;2023-07-13T07:11:08;20.10;99.90
20512;DHT22;10414;52.074;5.126;2023-07-13T07:13:35;20.30;99.90
20512;DHT22;10414;52.074;5.126;2023-07-13T07:16:02;20.10;99.90
20512;DHT22;10414;52.074;5.126;2023-07-13T07:18:33;19.80;99.90
20512;DHT22;10414;52.074;5.126;2023-07-13T07:20:59;19.70;99.90
20512;DHT22;10414;52.074;5.126;2023-07-13T07:23:26;19.50;99.90
20512;DHT22;10414;52.074;5.126;2023-07-13T07:25:53;19.40;99.90
20512;DHT22;10414;52.074;5.126;2023-07-13T07:28:20;19.80;99.90
20512;DHT22;10414;52.074;5.126;2023-07-13T07:30:48;19.60;99.90
20512;DHT22;10414;52.074;5.126;2023-07-13T07:33:15;19.70;99.90
20512;DHT22;10414;52.074;5.126;2023-07-13T07:35:44;20.00;99.90
20512;DHT22;10414;52.074;5.126;2023-07-13T07:38:10;20.20;99.90
20512;DHT22;10414;52.074;5.126;2023-07-13T07:40:38;20.80;99.90
20512;DHT22;10414;52.074;5.126;2023-07-13T07:43:10;22.10;99.90
20512;DHT22;10414;52.074;5.126;2023-07-13T07:45:38;23.90;99.90
20512;DHT22;10414;52.074;5.126;2023-07-13T07:48:07;26.00;99.90
20512;DHT22;10414;52.074;5.126;2023-07-13T07:50:35;24.50;99.90
20512;DHT22;10414;52.074;5.126;2023-07-13T07:53:07;23.80;99.90
20512;DHT22;10414;52.074;5.126;2023-07-13T07:55:36;22.00;99.90
20512;DHT22;10414;52.074;5.126;2023-07-13T07:58:03;21.30;99.90
20512;DHT22;10414;52.074;5.126;2023-07-13T08:00:32;20.90;99.90
20512;DHT22;10414;52.074;5.126;2023-07-13T08:02:59;22.30;99.90
20512;DHT22;10414;52.074;5.126;2023-07-13T08:05:28;25.40;99.90
20512;DHT22;10414;52.074;5.126;2023-07-13T08:07:55;27.00;99.90
20512;DHT22;10414;52.074;5.126;2023-07-13T08:10:26;28.50;99.90
20512;DHT22;10414;52.074;5.126;2023-07-13T08:12:53;27.60;99.90
20512;DHT22;10414;52.074;5.126;2023-07-13T08:15:20;28.70;99.90
20512;DHT22;10414;52.074;5.126;2023-07-13T08:17:48;27.90;99.90
20512;DHT22;10414;52.074;5.126;2023-07-13T08:20:15;26.60;99.90
20512;DHT22;10414;52.074;5.126;2023-07-13T08:22:43;25.40;99.90
20512;DHT22;10414;52.074;5.126;2023-07-13T08:25:09;25.00;99.90
20512;DHT22;10414;52.074;5.126;2023-07-13T08:27:38;23.70;99.90
20512;DHT22;10414;52.074;5.126;2023-07-13T08:30:06;22.30;99.90
20512;DHT22;10414;52.074;5.126;2023-07-13T08:32:33;20.80;99.90
20512;DHT22;10414;52.074;5.126;2023-07-13T08:35:00;19.80;99.90
20512;DHT22;10414;52.074;5.126;2023-07-13T08:37:27;19.50;99.90
20512;DHT22;10414;52.074;5.126;2023-07-13T08:39:56;19.80;99.90
20512;DHT22;10414;52.074;5.126;2023-07-13T08:42:33;20.60;99.90
20512;DHT22;10414;52.074;5.126;2023-07-13T08:45:11;21.00;99.90
20512;DHT22;10414;52.074;5.126;2023-07-13T08:47:42;20.90;99.90
20512;DHT22;10414;52.074;5.126;2023-07-13T08:50:13;20.90;99.90
20512;DHT22;10414;52.074;5.126;2023-07-13T08:52:41;21.40;99.90
20512;DHT22;10414;52.074;5.126;2023-07-13T08:55:14;23.10;99.90
20512;DHT22;10414;52.074;5.126;2023-07-13T08:57:43;23.40;99.90
20512;DHT22;10414;52.074;5.126;2023-07-13T09:00:13;22.50;99.90
20512;DHT22;10414;52.074;5.126;2023-07-13T09:02:45;23.10;99.90
20512;DHT22;10414;52.074;5.126;2023-07-13T09:05:16;25.90;99.90
20512;DHT22;10414;52.074;5.126;2023-07-13T09:08:04;28.00;99.90
20512;DHT22;10414;52.074;5.126;2023-07-13T09:10:42;30.10;99.90
20512;DHT22;10414;52.074;5.126;2023-07-13T09:13:24;30.20;99.90
20512;DHT22;10414;52.074;5.126;2023-07-13T09:15:55;29.70;99.90
20512;DHT22;10414;52.074;5.126;2023-07-13T09:18:29;30.00;99.90
20512;DHT22;10414;52.074;5.126;2023-07-13T09:21:02;29.40;99.90
20512;DHT22;10414;52.074;5.126;2023-07-13T09:23:31;28.50;99.90
20512;DHT22;10414;52.074;5.126;2023-07-13T09:26:02;28.80;99.90
20512;DHT22;10414;52.074;5.126;2023-07-13T09:28:37;28.20;99.90
20512;DHT22;10414;52.074;5.126;2023-07-13T09:31:10;27.00;99.90
20512;DHT22;10414;52.074;5.126;2023-07-13T09:33:39;25.00;99.90
20512;DHT22;10414;52.074;5.126;2023-07-13T09:36:20;23.40;99.90
20512;DHT22;10414;52.074;5.126;2023-07-13T09:38:49;22.70;99.90
20512;DHT22;10414;52.074;5.126;2023-07-13T09:41:21;22.30;99.90
20512;DHT22;10414;52.074;5.126;2023-07-13T09:44:11;21.80;99.90
20512;DHT22;10414;52.074;5.126;2023-07-13T09:46:43;21.60;99.90
20512;DHT22;10414;52.074;5.126;2023-07-13T09:49:11;22.00;99.90
20512;DHT22;10414;52.074;5.126;2023-07-13T09:51:40;22.30;99.90
20512;DHT22;10414;52.074;5.126;2023-07-13T09:54:18;22.10;99.90
20512;DHT22;10414;52.074;5.126;2023-07-13T09:56:45;22.40;99.90
20512;DHT22;10414;52.074;5.126;2023-07-13T09:59:19;23.50;99.90
20512;DHT22;10414;52.074;5.126;2023-07-13T10:01:47;25.00;99.90
20512;DHT22;10414;52.074;5.126;2023-07-13T10:04:18;26.50;99.90
20512;DHT22;10414;52.074;5.126;2023-07-13T10:06:46;26.00;99.90
20512;DHT22;10414;52.074;5.126;2023-07-13T10:09:15;25.70;99.90
20512;DHT22;10414;52.074;5.126;2023-07-13T10:11:45;26.60;99.90
20512;DHT22;10414;52.074;5.126;2023-07-13T10:14:16;26.20;99.90
20512;DHT22;10414;52.074;5.126;2023-07-13T10:16:45;24.80;99.90
20512;DHT22;10414;52.074;5.126;2023-07-13T10:19:17;24.00;99.90
20512;DHT22;10414;52.074;5.126;2023-07-13T10:21:50;22.60;99.90
20512;DHT22;10414;52.074;5.126;2023-07-13T10:24:22;22.10;99.90
20512;DHT22;10414;52.074;5.126;2023-07-13T10:27:01;22.20;99.90
20512;DHT22;10414;52.074;5.126;2023-07-13T10:29:34;22.60;99.90
20512;DHT22;10414;52.074;5.126;2023-07-13T10:32:02;23.30;99.90
20512;DHT22;10414;52.074;5.126;2023-07-13T10:34:31;24.10;99.90
20512;DHT22;10414;52.074;5.126;2023-07-13T10:37:16;24.60;99.90
20512;DHT22;10414;52.074;5.126;2023-07-13T10:39:47;24.50;99.90
20512;DHT22;10414;52.074;5.126;2023-07-13T10:42:20;24.50;99.90
20512;DHT22;10414;52.074;5.126;2023-07-13T10:44:54;24.20;99.90
20512;DHT22;10414;52.074;5.126;2023-07-13T10:47:21;25.10;99.90
20512;DHT22;10414;52.074;5.126;2023-07-13T10:49:54;26.10;99.90
20512;DHT22;10414;52.074;5.126;2023-07-13T10:52:42;25.70;99.90
20512;DHT22;10414;52.074;5.126;2023-07-13T10:55:32;25.20;99.90
20512;DHT22;10414;52.074;5.126;2023-07-13T10:58:01;26.40;99.90
20512;DHT22;10414;52.074;5.126;2023-07-13T11:00:31;27.00;99.90
20512;DHT22;10414;52.074;5.126;2023-07-13T11:03:02;26.60;99.90
20512;DHT22;10414;52.074;5.126;2023-07-13T11:05:33;25.10;99.90
20512;DHT22;10414;52.074;5.126;2023-07-13T11:08:19;24.60;99.90
20512;DHT22;10414;52.074;5.126;2023-07-13T11:10:54;25.50;99.90
20512;DHT22;10414;52.074;5.126;2023-07-13T11:13:54;26.00;99.90
20512;DHT22;10414;52.074;5.126;2023-07-13T11:16:43;25.60;99.90
20512;DHT22;10414;52.074;5.126;2023-07-13T11:19:39;25.90;99.90
20512;DHT22;10414;52.074;5.126;2023-07-13T11:22:14;25.20;99.90
20512;DHT22;10414;52.074;5.126;2023-07-13T11:24:50;24.80;99.90
20512;DHT22;10414;52.074;5.126;2023-07-13T11:27:25;23.90;99.90
20512;DHT22;10414;52.074;5.126;2023-07-13T11:30:07;23.50;99.90
20512;DHT22;10414;52.074;5.126;2023-07-13T11:32:35;23.00;99.90
20512;DHT22;10414;52.074;5.126;2023-07-13T11:35:02;23.00;99.90
20512;DHT22;10414;52.074;5.126;2023-07-13T11:37:31;22.90;99.90
20512;DHT22;10414;52.074;5.126;2023-07-13T11:39:58;22.60;99.90
20512;DHT22;10414;52.074;5.126;2023-07-13T11:42:25;22.90;99.90
20512;DHT22;10414;52.074;5.126;2023-07-13T11:44:53;23.30;99.90
20512;DHT22;10414;52.074;5.126;2023-07-13T11:47:22;24.10;99.90
20512;DHT22;10414;52.074;5.126;2023-07-13T11:49:53;24.90;99.90
20512;DHT22;10414;52.074;5.126;2023-07-13T11:52:34;26.50;99.90
20512;DHT22;10414;52.074;5.126;2023-07-13T11:55:16;26.20;99.90
20512;DHT22;10414;52.074;5.126;2023-07-13T11:57:45;25.90;99.90
20512;DHT22;10414;52.074;5.126;2023-07-13T12:00:15;25.20;99.90
20512;DHT22;10414;52.074;5.126;2023-07-13T12:02:45;25.20;99.90
20512;DHT22;10414;52.074;5.126;2023-07-13T12:05:14;24.90;99.90
20512;DHT22;10414;52.074;5.126;2023-07-13T12:07:43;24.60;99.90
20512;DHT22;10414;52.074;5.126;2023-07-13T12:10:18;24.50;99.90
20512;DHT22;10414;52.074;5.126;2023-07-13T12:12:47;24.60;99.90
20512;DHT22;10414;52.074;5.126;2023-07-13T12:15:14;24.60;99.90
20512;DHT22;10414;52.074;5.126;2023-07-13T12:17:41;24.50;99.90
20512;DHT22;10414;52.074;5.126;2023-07-13T12:20:21;24.40;99.90
20512;DHT22;10414;52.074;5.126;2023-07-13T12:22:51;24.40;99.90
20512;DHT22;10414;52.074;5.126;2023-07-13T12:25:22;24.60;99.90
20512;DHT22;10414;52.074;5.126;2023-07-13T12:27:50;24.60;99.90
20512;DHT22;10414;52.074;5.126;2023-07-13T12:30:26;24.60;99.90
20512;DHT22;10414;52.074;5.126;2023-07-13T12:32:57;24.50;99.90
20512;DHT22;10414;52.074;5.126;2023-07-13T12:35:26;24.40;99.90
20512;DHT22;10414;52.074;5.126;2023-07-13T12:37:57;24.80;99.90
20512;DHT22;10414;52.074;5.126;2023-07-13T12:40:33;24.60;99.90
20512;DHT22;10414;52.074;5.126;2023-07-13T12:43:02;24.70;99.90
20512;DHT22;10414;52.074;5.126;2023-07-13T12:45:33;24.50;99.90
20512;DHT22;10414;52.074;5.126;2023-07-13T12:48:05;24.50;99.90
20512;DHT22;10414;52.074;5.126;2023-07-13T12:50:37;24.50;99.90
20512;DHT22;10414;52.074;5.126;2023-07-13T12:53:12;24.40;99.90
20512;DHT22;10414;52.074;5.126;2023-07-13T12:55:43;24.60;99.90
20512;DHT22;10414;52.074;5.126;2023-07-13T12:58:18;24.80;99.90
20512;DHT22;10414;52.074;5.126;2023-07-13T13:00:49;24.60;99.90
20512;DHT22;10414;52.074;5.126;2023-07-13T13:03:24;24.10;99.90
20512;DHT22;10414;52.074;5.126;2023-07-13T13:05:57;24.30;99.90
20512;DHT22;10414;52.074;5.126;2023-07-13T13:08:25;24.50;99.90
20512;DHT22;10414;52.074;5.126;2023-07-13T13:10:56;24.60;99.90
20512;DHT22;10414;52.074;5.126;2023-07-13T13:13:25;24.80;99.90
20512;DHT22;10414;52.074;5.126;2023-07-13T13:15:52;25.00;99.90
20512;DHT22;10414;52.074;5.126;2023-07-13T13:18:21;24.70;99.90
20512;DHT22;10414;52.074;5.126;2023-07-13T13:20:51;24.60;99.90
20512;DHT22;10414;52.074;5.126;2023-07-13T13:23:20;24.50;99.90
20512;DHT22;10414;52.074;5.126;2023-07-13T13:25:50;24.50;99.90
20512;DHT22;10414;52.074;5.126;2023-07-13T13:28:19;24.90;99.90
20512;DHT22;10414;52.074;5.126;2023-07-13T13:30:50;25.00;99.90
20512;DHT22;10414;52.074;5.126;2023-07-13T13:33:21;24.90;99.90
20512;DHT22;10414;52.074;5.126;2023-07-13T13:35:49;24.70;99.90
20512;DHT22;10414;52.074;5.126;2023-07-13T13:38:18;24.70;99.90
20512;DHT22;10414;52.074;5.126;2023-07-13T13:40:46;25.00;99.90
20512;DHT22;10414;52.074;5.126;2023-07-13T13:43:18;25.00;99.90
20512;DHT22;10414;52.074;5.126;2023-07-13T13:45:46;24.80;99.90
20512;DHT22;10414;52.074;5.126;2023-07-13T13:48:15;25.30;99.90
20512;DHT22;10414;52.074;5.126;2023-07-13T13:50:42;25.60;99.90
20512;DHT22;10414;52.074;5.126;2023-07-13T13:53:13;25.20;99.90
20512;DHT22;10414;52.074;5.126;2023-07-13T13:55:42;25.10;99.90
20512;DHT22;10414;52.074;5.126;2023-07-13T13:58:12;25.00;99.90
20512;DHT22;10414;52.074;5.126;2023-07-13T14:00:40;24.90;99.90
20512;DHT22;10414;52.074;5.126;2023-07-13T14:03:14;25.10;99.90
20512;DHT22;10414;52.074;5.126;2023-07-13T14:05:42;25.70;99.90
20512;DHT22;10414;52.074;5.126;2023-07-13T14:08:13;25.40;99.90
20512;DHT22;10414;52.074;5.126;2023-07-13T14:10:41;25.00;99.90
20512;DHT22;10414;52.074;5.126;2023-07-13T14:13:18;24.50;99.90
20512;DHT22;10414;52.074;5.126;2023-07-13T14:15:51;24.30;99.90
20512;DHT22;10414;52.074;5.126;2023-07-13T14:18:18;24.20;99.90
20512;DHT22;10414;52.074;5.126;2023-07-13T14:20:45;24.20;99.90
20512;DHT22;10414;52.074;5.126;2023-07-13T14:23:18;24.20;99.90
20512;DHT22;10414;52.074;5.126;2023-07-13T14:25:45;24.40;99.90
20512;DHT22;10414;52.074;5.126;2023-07-13T14:28:20;24.60;99.90
20512;DHT22;10414;52.074;5.126;2023-07-13T14:30:50;24.40;99.90
20512;DHT22;10414;52.074;5.126;2023-07-13T14:33:17;24.50;99.90
20512;DHT22;10414;52.074;5.126;2023-07-13T14:35:49;24.50;99.90
20512;DHT22;10414;52.074;5.126;2023-07-13T14:38:19;24.30;99.90
20512;DHT22;10414;52.074;5.126;2023-07-13T14:40:46;24.40;99.90
20512;DHT22;10414;52.074;5.126;2023-07-13T14:43:15;24.70;99.90
20512;DHT22;10414;52.074;5.126;2023-07-13T14:45:44;24.80;99.90
20512;DHT22;10414;52.074;5.126;2023-07-13T14:48:18;24.60;99.90
20512;DHT22;10414;52.074;5.126;2023-07-13T14:50:45;24.40;99.90
20512;DHT22;10414;52.074;5.126;2023-07-13T14:53:13;24.50;99.90
20512;DHT22;10414;52.074;5.126;2023-07-13T14:55:40;24.60;99.90
20512;DHT22;10414;52.074;5.126;2023-07-13T14:58:08;24.30;99.90
20512;DHT22;10414;52.074;5.126;2023-07-13T15:00:35;24.50;99.90
20512;DHT22;10414;52.074;5.126;2023-07-13T15:03:03;24.20;99.90
20512;DHT22;10414;52.074;5.126;2023-07-13T15:05:33;24.60;99.90
20512;DHT22;10414;52.074;5.126;2023-07-13T15:08:01;24.80;99.90
20512;DHT22;10414;52.074;5.126;2023-07-13T15:10:31;25.00;99.90
20512;DHT22;10414;52.074;5.126;2023-07-13T15:13:00;25.00;99.90
20512;DHT22;10414;52.074;5.126;2023-07-13T15:15:28;24.00;99.90
20512;DHT22;10414;52.074;5.126;2023-07-13T15:17:56;24.50;99.90
20512;DHT22;10414;52.074;5.126;2023-07-13T15:20:26;24.80;99.90
20512;DHT22;10414;52.074;5.126;2023-07-13T15:23:00;24.70;99.90
20512;DHT22;10414;52.074;5.126;2023-07-13T15:25:30;24.70;99.90
20512;DHT22;10414;52.074;5.126;2023-07-13T15:27:59;24.30;99.90
20512;DHT22;10414;52.074;5.126;2023-07-13T15:30:29;24.30;99.90
20512;DHT22;10414;52.074;5.126;2023-07-13T15:33:01;24.30;99.90
20512;DHT22;10414;52.074;5.126;2023-07-13T15:35:33;24.50;99.90
20512;DHT22;10414;52.074;5.126;2023-07-13T15:38:01;24.50;99.90
20512;DHT22;10414;52.074;5.126;2023-07-13T15:40:29;24.40;99.90
20512;DHT22;10414;52.074;5.126;2023-07-13T15:42:59;24.40;99.90
20512;DHT22;10414;52.074;5.126;2023-07-13T15:45:25;24.40;99.90